Blackstone, VA (23824)

7:30 AM EDT on March 28, 2015 (GMT -0400)
Modest Creek Rd | | Change Station
CLOSE
Current Station
Personal Weather Station
Location: Victoria, VA
Elevation: 485 ft
Nearby Weather Stations

Elev 485 ft 37.05 °N, 78.18 °W | Updated 11 seconds ago

Snow
Snow
33.4 °F
Feels Like 33 °F
N
0.0
Wind Variable Wind from WNW
Gusts 1.0 mph

Today
High -- | Low -- °F
--% Chance of Precip.
Yesterday
High -- | Low -- °F
Precip. -- in
7:04 AM 7:30 PM
First Quarter, 61% visible
Pressure 29.99 in
Visibility 10.0 miles
Clouds Scattered Clouds 3300 ft
Overcast 4100 ft
Windchill 33 °F
Dew Point -12 °F
Humidity 13%
Rainfall 0.02 in
Snow Depth Not available.
UV 0 out of 12
Pollen 8.90 out of 12
Air Quality Not available.
Flu Activity Not available.
METAR KAVC 281116Z AUTO 00000KT 10SM SCT033 OVC041 02/01 A2999 RMK AO2 T00160005

More Conditions Fewer Conditions

Pressure 29.99 in
Visibility 10.0 miles
Clouds Scattered Clouds 3300 ft
Overcast 4100 ft
Windchill 33 °F
Dew Point -12 °F
Humidity 13%
Rainfall 0.02 in
Snow Depth Not available.
UV 0 out of 12
Pollen 8.90 out of 12
Air Quality Not available.
Flu Activity Not available.
METAR KAVC 281116Z AUTO 00000KT 10SM SCT033 OVC041 02/01 A2999 RMK AO2 T00160005

More Conditions Fewer Conditions

10-Day Weather Forecast

Almanac

Astronomy

Mar. 28, 2015 Rise Set
Actual Time
Civil Twilight
Nautical Twilight
Astronomical Twilight
Moon
Length of Visible Light
Length of Day
Tomorrow will be .
, % of the Moon is Illuminated

Today's Extremes

State Highs State Lows

Community

WunderPhotos

Upload Photos

1,808,958 photos uploaded!

WunderBlogs® & News

Nearby

Air Quality

  Air Quality AQ Index Pollutant
Not available.

Snow Depth

Station Depth Elevation

Earthquake Activity

City Distance Mag. Time & Date
Minimum magnitude displayed is 2.5.

Coastal Water Temperatures

Place Temperature

Stations

Nearby Weather Stations

Station Location Temp. Windchill Dew Point Humidity Wind Precip. Elev Updated Type